sensor_id;sensor_type;location;lat;lon;timestamp;pressure;altitude;pressure_sealevel;temperature;humidity
27705;BME280;15109;50.992;6.918;2022-12-29T00:00:01;99837.84;;;10.74;100.00
27705;BME280;15109;50.992;6.918;2022-12-29T00:03:33;99827.94;;;10.73;100.00
27705;BME280;15109;50.992;6.918;2022-12-29T00:06:54;99832.34;;;10.67;100.00
27705;BME280;15109;50.992;6.918;2022-12-29T00:10:15;99818.06;;;10.72;100.00
27705;BME280;15109;50.992;6.918;2022-12-29T00:13:36;99813.44;;;10.72;100.00
27705;BME280;15109;50.992;6.918;2022-12-29T00:17:16;99809.63;;;10.67;100.00
27705;BME280;15109;50.992;6.918;2022-12-29T00:20:37;99816.16;;;10.66;100.00
27705;BME280;15109;50.992;6.918;2022-12-29T00:24:21;99803.75;;;10.63;100.00
27705;BME280;15109;50.992;6.918;2022-12-29T00:27:42;99797.66;;;10.68;100.00
27705;BME280;15109;50.992;6.918;2022-12-29T00:31:22;99790.72;;;10.72;100.00
27705;BME280;15109;50.992;6.918;2022-12-29T00:35:02;99787.13;;;10.71;100.00
27705;BME280;15109;50.992;6.918;2022-12-29T00:38:31;99787.38;;;10.70;100.00
27705;BME280;15109;50.992;6.918;2022-12-29T00:42:12;99785.03;;;10.80;100.00
27705;BME280;15109;50.992;6.918;2022-12-29T00:45:51;99778.53;;;10.81;100.00
27705;BME280;15109;50.992;6.918;2022-12-29T00:49:13;99780.41;;;10.80;100.00
27705;BME280;15109;50.992;6.918;2022-12-29T00:52:53;99772.63;;;10.84;100.00
27705;BME280;15109;50.992;6.918;2022-12-29T00:56:14;99768.00;;;10.84;100.00
27705;BME280;15109;50.992;6.918;2022-12-29T00:59:36;99771.56;;;10.85;100.00
27705;BME280;15109;50.992;6.918;2022-12-29T01:02:57;99774.09;;;10.86;100.00
27705;BME280;15109;50.992;6.918;2022-12-29T01:06:18;99775.34;;;10.90;100.00
27705;BME280;15109;50.992;6.918;2022-12-29T01:09:39;99771.16;;;10.95;100.00
27705;BME280;15109;50.992;6.918;2022-12-29T01:13:19;99777.47;;;10.95;100.00
27705;BME280;15109;50.992;6.918;2022-12-29T01:16:40;99776.41;;;11.03;100.00
27705;BME280;15109;50.992;6.918;2022-12-29T01:20:01;99782.47;;;11.11;100.00
27705;BME280;15109;50.992;6.918;2022-12-29T01:23:23;99793.19;;;11.26;100.00
27705;BME280;15109;50.992;6.918;2022-12-29T01:26:44;99769.38;;;11.26;100.00
27705;BME280;15109;50.992;6.918;2022-12-29T01:30:06;99773.81;;;11.34;100.00
27705;BME280;15109;50.992;6.918;2022-12-29T01:33:27;99772.69;;;11.48;100.00
27705;BME280;15109;50.992;6.918;2022-12-29T01:36:48;99769.75;;;11.50;100.00
27705;BME280;15109;50.992;6.918;2022-12-29T01:40:10;99767.66;;;11.52;100.00
27705;BME280;15109;50.992;6.918;2022-12-29T01:47:01;99780.84;;;11.61;100.00
27705;BME280;15109;50.992;6.918;2022-12-29T01:50:31;99764.81;;;11.71;100.00
27705;BME280;15109;50.992;6.918;2022-12-29T01:53:54;99761.00;;;11.79;100.00
27705;BME280;15109;50.992;6.918;2022-12-29T01:57:21;99752.78;;;11.86;100.00
27705;BME280;15109;50.992;6.918;2022-12-29T02:00:43;99736.94;;;11.94;100.00
27705;BME280;15109;50.992;6.918;2022-12-29T02:04:05;99740.50;;;11.95;100.00
27705;BME280;15109;50.992;6.918;2022-12-29T02:07:26;99740.91;;;11.98;100.00
27705;BME280;15109;50.992;6.918;2022-12-29T02:10:48;99731.00;;;11.97;100.00
27705;BME280;15109;50.992;6.918;2022-12-29T02:14:12;99738.34;;;12.03;100.00
27705;BME280;15109;50.992;6.918;2022-12-29T02:21:49;99729.69;;;12.06;100.00
27705;BME280;15109;50.992;6.918;2022-12-29T02:32:54;99717.00;;;12.12;100.00
27705;BME280;15109;50.992;6.918;2022-12-29T02:36:39;99720.41;;;12.07;100.00
27705;BME280;15109;50.992;6.918;2022-12-29T02:40:06;99716.00;;;12.06;100.00
27705;BME280;15109;50.992;6.918;2022-12-29T02:47:50;99712.47;;;11.99;100.00
27705;BME280;15109;50.992;6.918;2022-12-29T02:51:20;99712.03;;;11.96;100.00
27705;BME280;15109;50.992;6.918;2022-12-29T02:54:42;99709.53;;;11.94;100.00
27705;BME280;15109;50.992;6.918;2022-12-29T02:58:15;99708.31;;;11.90;100.00
27705;BME280;15109;50.992;6.918;2022-12-29T03:06:27;99705.78;;;11.89;100.00
27705;BME280;15109;50.992;6.918;2022-12-29T03:21:16;99674.59;;;11.90;100.00
27705;BME280;15109;50.992;6.918;2022-12-29T03:24:43;99668.88;;;11.91;100.00
27705;BME280;15109;50.992;6.918;2022-12-29T03:28:24;99668.06;;;11.91;100.00
27705;BME280;15109;50.992;6.918;2022-12-29T03:31:49;99661.56;;;11.85;100.00
27705;BME280;15109;50.992;6.918;2022-12-29T03:35:14;99664.06;;;11.87;100.00
27705;BME280;15109;50.992;6.918;2022-12-29T03:38:43;99672.50;;;11.85;100.00
27705;BME280;15109;50.992;6.918;2022-12-29T03:42:20;99676.69;;;11.88;100.00
27705;BME280;15109;50.992;6.918;2022-12-29T03:45:42;99658.34;;;11.88;100.00
27705;BME280;15109;50.992;6.918;2022-12-29T03:49:04;99637.50;;;11.87;100.00
27705;BME280;15109;50.992;6.918;2022-12-29T03:52:25;99652.22;;;11.93;100.00
27705;BME280;15109;50.992;6.918;2022-12-29T03:55:48;99634.09;;;11.92;100.00
27705;BME280;15109;50.992;6.918;2022-12-29T03:59:10;99642.38;;;11.85;100.00
27705;BME280;15109;50.992;6.918;2022-12-29T04:02:34;99640.09;;;11.82;100.00
27705;BME280;15109;50.992;6.918;2022-12-29T04:05:57;99627.88;;;11.78;100.00
27705;BME280;15109;50.992;6.918;2022-12-29T04:09:19;99629.94;;;11.82;100.00
27705;BME280;15109;50.992;6.918;2022-12-29T04:12:43;99625.56;;;11.81;100.00
27705;BME280;15109;50.992;6.918;2022-12-29T04:16:07;99630.56;;;11.85;100.00
27705;BME280;15109;50.992;6.918;2022-12-29T04:19:28;99634.16;;;11.85;100.00
27705;BME280;15109;50.992;6.918;2022-12-29T04:22:58;99621.13;;;11.80;100.00
27705;BME280;15109;50.992;6.918;2022-12-29T04:26:19;99623.09;;;11.73;100.00
27705;BME280;15109;50.992;6.918;2022-12-29T04:29:50;99619.75;;;11.65;100.00
27705;BME280;15109;50.992;6.918;2022-12-29T04:33:34;99614.41;;;11.70;100.00
27705;BME280;15109;50.992;6.918;2022-12-29T04:36:56;99625.38;;;11.70;100.00
27705;BME280;15109;50.992;6.918;2022-12-29T04:40:17;99629.16;;;11.75;100.00
27705;BME280;15109;50.992;6.918;2022-12-29T04:43:38;99641.56;;;11.78;100.00
27705;BME280;15109;50.992;6.918;2022-12-29T04:47:11;99643.44;;;11.84;100.00
27705;BME280;15109;50.992;6.918;2022-12-29T04:50:51;99652.88;;;11.88;100.00
27705;BME280;15109;50.992;6.918;2022-12-29T04:54:13;99658.34;;;11.88;100.00
27705;BME280;15109;50.992;6.918;2022-12-29T04:57:35;99648.88;;;11.91;100.00
27705;BME280;15109;50.992;6.918;2022-12-29T05:00:56;99648.19;;;11.95;100.00
27705;BME280;15109;50.992;6.918;2022-12-29T05:04:20;99632.44;;;11.91;100.00
27705;BME280;15109;50.992;6.918;2022-12-29T05:07:42;99644.44;;;11.90;100.00
27705;BME280;15109;50.992;6.918;2022-12-29T05:11:03;99651.66;;;11.84;100.00
27705;BME280;15109;50.992;6.918;2022-12-29T05:14:24;99624.22;;;11.91;100.00
27705;BME280;15109;50.992;6.918;2022-12-29T05:17:46;99661.50;;;11.92;100.00
27705;BME280;15109;50.992;6.918;2022-12-29T05:21:07;99669.13;;;11.83;100.00
27705;BME280;15109;50.992;6.918;2022-12-29T05:24:29;99673.94;;;11.88;100.00
27705;BME280;15109;50.992;6.918;2022-12-29T05:27:51;99673.53;;;11.91;100.00
27705;BME280;15109;50.992;6.918;2022-12-29T05:31:19;99664.63;;;11.95;100.00
27705;BME280;15109;50.992;6.918;2022-12-29T05:34:40;99653.44;;;11.97;100.00
27705;BME280;15109;50.992;6.918;2022-12-29T05:38:01;99666.03;;;12.04;100.00
27705;BME280;15109;50.992;6.918;2022-12-29T05:41:22;99673.59;;;12.09;100.00
27705;BME280;15109;50.992;6.918;2022-12-29T05:45:03;99686.22;;;12.10;100.00
27705;BME280;15109;50.992;6.918;2022-12-29T05:48:43;99683.88;;;12.13;100.00
27705;BME280;15109;50.992;6.918;2022-12-29T05:52:16;99689.59;;;12.12;100.00
27705;BME280;15109;50.992;6.918;2022-12-29T05:55:37;99695.69;;;12.14;100.00
27705;BME280;15109;50.992;6.918;2022-12-29T05:58:59;99698.44;;;12.14;100.00
27705;BME280;15109;50.992;6.918;2022-12-29T06:02:20;99686.13;;;12.23;100.00
27705;BME280;15109;50.992;6.918;2022-12-29T06:05:44;99678.75;;;12.23;100.00
27705;BME280;15109;50.992;6.918;2022-12-29T06:09:05;99694.38;;;12.23;100.00
27705;BME280;15109;50.992;6.918;2022-12-29T06:12:27;99687.44;;;12.20;100.00
27705;BME280;15109;50.992;6.918;2022-12-29T06:15:49;99687.81;;;12.24;100.00
27705;BME280;15109;50.992;6.918;2022-12-29T06:19:12;99678.56;;;12.25;100.00
27705;BME280;15109;50.992;6.918;2022-12-29T06:22:35;99670.75;;;12.22;100.00
27705;BME280;15109;50.992;6.918;2022-12-29T06:25:56;99666.56;;;12.19;100.00
27705;BME280;15109;50.992;6.918;2022-12-29T06:29:18;99681.97;;;12.20;100.00
27705;BME280;15109;50.992;6.918;2022-12-29T06:32:39;99688.69;;;12.18;100.00
27705;BME280;15109;50.992;6.918;2022-12-29T06:36:04;99693.34;;;12.17;100.00
27705;BME280;15109;50.992;6.918;2022-12-29T06:39:26;99699.00;;;12.22;100.00
27705;BME280;15109;50.992;6.918;2022-12-29T06:43:02;99704.75;;;12.14;100.00
27705;BME280;15109;50.992;6.918;2022-12-29T06:46:38;99706.47;;;12.09;100.00
27705;BME280;15109;50.992;6.918;2022-12-29T06:49:59;99712.78;;;12.09;100.00
27705;BME280;15109;50.992;6.918;2022-12-29T06:53:20;99715.53;;;12.09;100.00
27705;BME280;15109;50.992;6.918;2022-12-29T06:56:41;99705.41;;;12.10;100.00
27705;BME280;15109;50.992;6.918;2022-12-29T07:00:03;99709.59;;;12.12;100.00
27705;BME280;15109;50.992;6.918;2022-12-29T07:03:26;99713.44;;;12.11;100.00
27705;BME280;15109;50.992;6.918;2022-12-29T07:06:48;99722.50;;;12.12;100.00
27705;BME280;15109;50.992;6.918;2022-12-29T07:10:09;99734.69;;;12.16;100.00
27705;BME280;15109;50.992;6.918;2022-12-29T07:13:30;99716.56;;;12.15;100.00
27705;BME280;15109;50.992;6.918;2022-12-29T07:16:51;99736.41;;;12.10;100.00
27705;BME280;15109;50.992;6.918;2022-12-29T07:20:12;99737.91;;;12.06;100.00
27705;BME280;15109;50.992;6.918;2022-12-29T07:23:33;99745.50;;;12.04;100.00
27705;BME280;15109;50.992;6.918;2022-12-29T07:26:54;99752.88;;;12.04;100.00
27705;BME280;15109;50.992;6.918;2022-12-29T07:30:15;99765.31;;;12.06;100.00
27705;BME280;15109;50.992;6.918;2022-12-29T07:33:36;99779.84;;;12.07;100.00
27705;BME280;15109;50.992;6.918;2022-12-29T07:36:57;99774.19;;;12.02;100.00
27705;BME280;15109;50.992;6.918;2022-12-29T07:40:18;99783.44;;;12.01;100.00
27705;BME280;15109;50.992;6.918;2022-12-29T07:43:39;99774.38;;;12.00;100.00
27705;BME280;15109;50.992;6.918;2022-12-29T07:47:17;99789.38;;;11.98;100.00
27705;BME280;15109;50.992;6.918;2022-12-29T07:50:38;99806.03;;;11.96;100.00
27705;BME280;15109;50.992;6.918;2022-12-29T07:53:59;99806.47;;;11.93;100.00
27705;BME280;15109;50.992;6.918;2022-12-29T07:57:21;99802.03;;;11.92;100.00
27705;BME280;15109;50.992;6.918;2022-12-29T08:00:42;99809.41;;;11.92;100.00
27705;BME280;15109;50.992;6.918;2022-12-29T08:04:03;99812.78;;;11.94;100.00
27705;BME280;15109;50.992;6.918;2022-12-29T08:07:24;99817.44;;;11.93;100.00
27705;BME280;15109;50.992;6.918;2022-12-29T08:10:45;99802.50;;;11.89;100.00
27705;BME280;15109;50.992;6.918;2022-12-29T08:14:06;99814.50;;;11.88;100.00
27705;BME280;15109;50.992;6.918;2022-12-29T08:17:28;99818.28;;;11.87;100.00
27705;BME280;15109;50.992;6.918;2022-12-29T08:20:49;99813.66;;;11.88;100.00
27705;BME280;15109;50.992;6.918;2022-12-29T08:24:10;99814.09;;;11.85;100.00
27705;BME280;15109;50.992;6.918;2022-12-29T08:27:31;99797.91;;;11.76;100.00
27705;BME280;15109;50.992;6.918;2022-12-29T08:30:52;99813.69;;;11.74;100.00
27705;BME280;15109;50.992;6.918;2022-12-29T08:34:13;99819.19;;;11.68;100.00
27705;BME280;15109;50.992;6.918;2022-12-29T08:37:34;99820.03;;;11.62;100.00
27705;BME280;15109;50.992;6.918;2022-12-29T08:40:56;99822.16;;;11.60;100.00
27705;BME280;15109;50.992;6.918;2022-12-29T08:44:18;99822.38;;;11.65;100.00
27705;BME280;15109;50.992;6.918;2022-12-29T08:51:50;99849.38;;;11.42;100.00
27705;BME280;15109;50.992;6.918;2022-12-29T08:55:11;99847.44;;;11.49;100.00
27705;BME280;15109;50.992;6.918;2022-12-29T08:58:32;99847.66;;;11.54;100.00
27705;BME280;15109;50.992;6.918;2022-12-29T09:01:54;99853.13;;;11.54;100.00
27705;BME280;15109;50.992;6.918;2022-12-29T09:05:16;99850.19;;;11.55;100.00
27705;BME280;15109;50.992;6.918;2022-12-29T09:08:37;99845.31;;;11.57;100.00
27705;BME280;15109;50.992;6.918;2022-12-29T09:11:58;99857.28;;;11.69;100.00
27705;BME280;15109;50.992;6.918;2022-12-29T09:15:19;99874.19;;;11.60;100.00
27705;BME280;15109;50.992;6.918;2022-12-29T09:18:40;99887.44;;;11.76;100.00
27705;BME280;15109;50.992;6.918;2022-12-29T09:22:01;99878.16;;;11.83;100.00
27705;BME280;15109;50.992;6.918;2022-12-29T09:25:22;99901.31;;;11.94;100.00
27705;BME280;15109;50.992;6.918;2022-12-29T09:28:45;99901.72;;;11.91;100.00
27705;BME280;15109;50.992;6.918;2022-12-29T09:32:06;99894.09;;;12.00;100.00
27705;BME280;15109;50.992;6.918;2022-12-29T09:35:28;99900.88;;;11.97;100.00
27705;BME280;15109;50.992;6.918;2022-12-29T09:38:50;99904.03;;;11.94;100.00
27705;BME280;15109;50.992;6.918;2022-12-29T09:45:58;99917.78;;;11.81;100.00
27705;BME280;15109;50.992;6.918;2022-12-29T09:49:40;99913.75;;;11.83;100.00
27705;BME280;15109;50.992;6.918;2022-12-29T09:56:37;99913.78;;;11.77;100.00
27705;BME280;15109;50.992;6.918;2022-12-29T10:00:03;99921.59;;;11.73;100.00
27705;BME280;15109;50.992;6.918;2022-12-29T10:07:25;99904.31;;;11.73;100.00
27705;BME280;15109;50.992;6.918;2022-12-29T10:14:53;99914.44;;;11.72;100.00
27705;BME280;15109;50.992;6.918;2022-12-29T10:26:16;99904.50;;;11.78;100.00
27705;BME280;15109;50.992;6.918;2022-12-29T10:29:58;99907.88;;;11.80;100.00
27705;BME280;15109;50.992;6.918;2022-12-29T10:33:31;99907.47;;;11.76;100.00
27705;BME280;15109;50.992;6.918;2022-12-29T10:41:02;99911.44;;;11.80;100.00
27705;BME280;15109;50.992;6.918;2022-12-29T10:44:29;99918.59;;;11.88;100.00
27705;BME280;15109;50.992;6.918;2022-12-29T10:48:12;99933.94;;;12.02;100.00
27705;BME280;15109;50.992;6.918;2022-12-29T10:51:39;99931.16;;;12.15;100.00
27705;BME280;15109;50.992;6.918;2022-12-29T10:55:12;99926.28;;;12.17;100.00
27705;BME280;15109;50.992;6.918;2022-12-29T10:58:35;99930.28;;;12.28;100.00
27705;BME280;15109;50.992;6.918;2022-12-29T11:05:28;99930.06;;;12.30;100.00
27705;BME280;15109;50.992;6.918;2022-12-29T11:09:11;99944.81;;;12.28;100.00
27705;BME280;15109;50.992;6.918;2022-12-29T11:12:33;99932.34;;;12.33;100.00
27705;BME280;15109;50.992;6.918;2022-12-29T11:15:55;99947.50;;;12.35;100.00
27705;BME280;15109;50.992;6.918;2022-12-29T11:19:24;99948.16;;;12.31;100.00
27705;BME280;15109;50.992;6.918;2022-12-29T11:22:45;99951.53;;;12.33;100.00
27705;BME280;15109;50.992;6.918;2022-12-29T11:29:39;99965.56;;;12.56;100.00
27705;BME280;15109;50.992;6.918;2022-12-29T11:33:03;99959.31;;;12.42;100.00
27705;BME280;15109;50.992;6.918;2022-12-29T11:36:24;99966.50;;;12.37;100.00
27705;BME280;15109;50.992;6.918;2022-12-29T11:39:53;99967.97;;;12.39;100.00
27705;BME280;15109;50.992;6.918;2022-12-29T11:43:31;99980.59;;;12.47;100.00
27705;BME280;15109;50.992;6.918;2022-12-29T11:46:54;99984.81;;;12.43;100.00
27705;BME280;15109;50.992;6.918;2022-12-29T11:50:37;99972.84;;;12.37;100.00
27705;BME280;15109;50.992;6.918;2022-12-29T11:54:01;99966.50;;;12.37;100.00
27705;BME280;15109;50.992;6.918;2022-12-29T11:57:25;99992.88;;;12.31;100.00
27705;BME280;15109;50.992;6.918;2022-12-29T12:00:48;99985.28;;;12.33;100.00
27705;BME280;15109;50.992;6.918;2022-12-29T12:04:15;99986.13;;;12.34;100.00
27705;BME280;15109;50.992;6.918;2022-12-29T12:07:39;99990.34;;;12.36;100.00
27705;BME280;15109;50.992;6.918;2022-12-29T12:11:24;99988.84;;;12.40;100.00
27705;BME280;15109;50.992;6.918;2022-12-29T12:14:53;99981.22;;;12.49;100.00
27705;BME280;15109;50.992;6.918;2022-12-29T12:19:12;99989.22;;;12.50;100.00
27705;BME280;15109;50.992;6.918;2022-12-29T12:22:40;99990.28;;;12.49;100.00
27705;BME280;15109;50.992;6.918;2022-12-29T12:26:12;99998.25;;;12.64;100.00
27705;BME280;15109;50.992;6.918;2022-12-29T12:33:10;100006.03;;;12.60;100.00
27705;BME280;15109;50.992;6.918;2022-12-29T13:02:43;100022.00;;;12.83;100.00
27705;BME280;15109;50.992;6.918;2022-12-29T13:10:22;100025.56;;;12.84;100.00
27705;BME280;15109;50.992;6.918;2022-12-29T13:29:23;100028.66;;;12.49;100.00
27705;BME280;15109;50.992;6.918;2022-12-29T13:40:12;100057.63;;;12.19;100.00
27705;BME280;15109;50.992;6.918;2022-12-29T13:43:37;100064.78;;;12.26;100.00
27705;BME280;15109;50.992;6.918;2022-12-29T13:47:15;100065.22;;;12.23;100.00
27705;BME280;15109;50.992;6.918;2022-12-29T13:50:39;100078.09;;;12.30;100.00
27705;BME280;15109;50.992;6.918;2022-12-29T14:04:59;100074.06;;;12.25;100.00
27705;BME280;15109;50.992;6.918;2022-12-29T14:08:20;100083.34;;;12.18;100.00
27705;BME280;15109;50.992;6.918;2022-12-29T14:11:41;100084.63;;;12.09;100.00
27705;BME280;15109;50.992;6.918;2022-12-29T14:15:05;100076.81;;;12.12;100.00
27705;BME280;15109;50.992;6.918;2022-12-29T14:18:43;100088.66;;;12.06;100.00
27705;BME280;15109;50.992;6.918;2022-12-29T14:22:05;100086.97;;;11.99;100.00
27705;BME280;15109;50.992;6.918;2022-12-29T14:33:00;100106.16;;;11.86;100.00
27705;BME280;15109;50.992;6.918;2022-12-29T14:36:27;100104.66;;;11.90;100.00
27705;BME280;15109;50.992;6.918;2022-12-29T14:43:36;100111.19;;;11.89;100.00
27705;BME280;15109;50.992;6.918;2022-12-29T14:47:00;100121.31;;;11.81;100.00
27705;BME280;15109;50.992;6.918;2022-12-29T14:50:39;100112.44;;;11.79;100.00
27705;BME280;15109;50.992;6.918;2022-12-29T14:58:00;100123.19;;;11.74;100.00
27705;BME280;15109;50.992;6.918;2022-12-29T15:01:50;100120.00;;;11.64;100.00
27705;BME280;15109;50.992;6.918;2022-12-29T15:09:12;100126.72;;;11.55;100.00
27705;BME280;15109;50.992;6.918;2022-12-29T15:12:52;100123.75;;;11.50;100.00
27705;BME280;15109;50.992;6.918;2022-12-29T15:19:46;100123.53;;;11.45;100.00
27705;BME280;15109;50.992;6.918;2022-12-29T15:23:12;100116.78;;;11.34;100.00
27705;BME280;15109;50.992;6.918;2022-12-29T15:26:40;100120.78;;;11.38;100.00
27705;BME280;15109;50.992;6.918;2022-12-29T15:30:03;100118.22;;;11.30;100.00
27705;BME280;15109;50.992;6.918;2022-12-29T15:33:28;100133.81;;;11.30;100.00
27705;BME280;15109;50.992;6.918;2022-12-29T15:36:50;100129.56;;;11.27;100.00
27705;BME280;15109;50.992;6.918;2022-12-29T15:40:24;100138.63;;;11.21;100.00
27705;BME280;15109;50.992;6.918;2022-12-29T15:44:14;100151.25;;;11.22;100.00
27705;BME280;15109;50.992;6.918;2022-12-29T15:47:38;100151.25;;;11.22;100.00
27705;BME280;15109;50.992;6.918;2022-12-29T15:50:59;100165.16;;;11.21;100.00
27705;BME280;15109;50.992;6.918;2022-12-29T15:54:22;100153.13;;;11.15;100.00
27705;BME280;15109;50.992;6.918;2022-12-29T15:57:44;100146.78;;;11.08;100.00
27705;BME280;15109;50.992;6.918;2022-12-29T16:01:20;100147.59;;;11.02;100.00
27705;BME280;15109;50.992;6.918;2022-12-29T16:04:45;100151.72;;;10.85;100.00
27705;BME280;15109;50.992;6.918;2022-12-29T16:08:29;100156.69;;;10.75;100.00
27705;BME280;15109;50.992;6.918;2022-12-29T16:11:54;100165.50;;;10.70;100.00
27705;BME280;15109;50.992;6.918;2022-12-29T16:15:17;100162.75;;;10.64;100.00
27705;BME280;15109;50.992;6.918;2022-12-29T16:18:38;100158.03;;;10.51;100.00
27705;BME280;15109;50.992;6.918;2022-12-29T16:22:00;100164.72;;;10.48;100.00
27705;BME280;15109;50.992;6.918;2022-12-29T16:25:33;100169.75;;;10.45;100.00
27705;BME280;15109;50.992;6.918;2022-12-29T16:28:58;100165.47;;;10.36;100.00
27705;BME280;15109;50.992;6.918;2022-12-29T16:32:26;100178.06;;;10.30;100.00
27705;BME280;15109;50.992;6.918;2022-12-29T16:35:47;100164.16;;;10.25;100.00
27705;BME280;15109;50.992;6.918;2022-12-29T16:39:25;100174.81;;;10.20;100.00
27705;BME280;15109;50.992;6.918;2022-12-29T16:42:48;100172.19;;;10.12;100.00
27705;BME280;15109;50.992;6.918;2022-12-29T16:49:42;100181.38;;;10.05;100.00
27705;BME280;15109;50.992;6.918;2022-12-29T16:53:24;100180.31;;;10.06;100.00
27705;BME280;15109;50.992;6.918;2022-12-29T16:56:45;100195.69;;;10.07;100.00
27705;BME280;15109;50.992;6.918;2022-12-29T17:00:08;100196.72;;;10.06;100.00
27705;BME280;15109;50.992;6.918;2022-12-29T17:03:41;100201.41;;;10.12;100.00
27705;BME280;15109;50.992;6.918;2022-12-29T17:07:18;100201.59;;;10.10;100.00
27705;BME280;15109;50.992;6.918;2022-12-29T17:10:40;100212.50;;;10.10;100.00
27705;BME280;15109;50.992;6.918;2022-12-29T17:14:42;100215.03;;;10.05;100.00
27705;BME280;15109;50.992;6.918;2022-12-29T17:18:04;100226.75;;;10.06;100.00
27705;BME280;15109;50.992;6.918;2022-12-29T17:21:25;100226.38;;;10.09;100.00
27705;BME280;15109;50.992;6.918;2022-12-29T17:24:46;100235.63;;;10.08;100.00
27705;BME280;15109;50.992;6.918;2022-12-29T17:31:40;100228.59;;;9.98;100.00
27705;BME280;15109;50.992;6.918;2022-12-29T17:35:02;100238.88;;;9.96;100.00
27705;BME280;15109;50.992;6.918;2022-12-29T17:38:31;100238.47;;;9.99;100.00
27705;BME280;15109;50.992;6.918;2022-12-29T17:41:54;100242.13;;;10.07;100.00
27705;BME280;15109;50.992;6.918;2022-12-29T17:45:17;100240.91;;;10.09;100.00
27705;BME280;15109;50.992;6.918;2022-12-29T17:48:40;100242.78;;;10.09;100.00
27705;BME280;15109;50.992;6.918;2022-12-29T17:52:01;100244.06;;;10.13;100.00
27705;BME280;15109;50.992;6.918;2022-12-29T17:55:23;100249.53;;;10.13;100.00
27705;BME280;15109;50.992;6.918;2022-12-29T17:58:45;100249.00;;;10.02;100.00
27705;BME280;15109;50.992;6.918;2022-12-29T18:02:24;100251.28;;;9.99;100.00
27705;BME280;15109;50.992;6.918;2022-12-29T18:05:45;100251.69;;;9.96;100.00
27705;BME280;15109;50.992;6.918;2022-12-29T18:09:06;100258.81;;;9.97;100.00
27705;BME280;15109;50.992;6.918;2022-12-29T18:12:43;100277.16;;;10.03;100.00
27705;BME280;15109;50.992;6.918;2022-12-29T18:16:04;100285.19;;;10.05;100.00
27705;BME280;15109;50.992;6.918;2022-12-29T18:19:26;100308.78;;;10.12;100.00
27705;BME280;15109;50.992;6.918;2022-12-29T18:22:47;100306.56;;;10.01;100.00
27705;BME280;15109;50.992;6.918;2022-12-29T18:26:20;100314.50;;;9.96;100.00
27705;BME280;15109;50.992;6.918;2022-12-29T18:29:43;100305.31;;;9.82;100.00
27705;BME280;15109;50.992;6.918;2022-12-29T18:33:04;100300.81;;;9.75;100.00
27705;BME280;15109;50.992;6.918;2022-12-29T18:36:26;100307.88;;;9.69;100.00
27705;BME280;15109;50.992;6.918;2022-12-29T18:39:47;100306.09;;;9.62;100.00
27705;BME280;15109;50.992;6.918;2022-12-29T18:43:12;100308.56;;;9.56;100.00
27705;BME280;15109;50.992;6.918;2022-12-29T18:46:33;100316.63;;;9.50;100.00
27705;BME280;15109;50.992;6.918;2022-12-29T18:49:54;100319.75;;;9.47;100.00
27705;BME280;15109;50.992;6.918;2022-12-29T18:53:22;100327.03;;;9.40;100.00
27705;BME280;15109;50.992;6.918;2022-12-29T18:56:44;100322.88;;;9.44;100.00
27705;BME280;15109;50.992;6.918;2022-12-29T19:00:08;100327.94;;;9.47;100.00
27705;BME280;15109;50.992;6.918;2022-12-29T19:03:32;100328.50;;;9.42;100.00
27705;BME280;15109;50.992;6.918;2022-12-29T19:06:54;100331.97;;;9.51;100.00
27705;BME280;15109;50.992;6.918;2022-12-29T19:10:15;100332.09;;;9.57;100.00
27705;BME280;15109;50.992;6.918;2022-12-29T19:13:37;100326.41;;;9.59;100.00
27705;BME280;15109;50.992;6.918;2022-12-29T19:16:58;100337.25;;;9.52;100.00
27705;BME280;15109;50.992;6.918;2022-12-29T19:20:35;100337.44;;;9.51;100.00
27705;BME280;15109;50.992;6.918;2022-12-29T19:23:56;100337.84;;;9.48;100.00
27705;BME280;15109;50.992;6.918;2022-12-29T19:27:17;100344.59;;;9.37;100.00
27705;BME280;15109;50.992;6.918;2022-12-29T19:30:38;100339.41;;;9.28;100.00
27705;BME280;15109;50.992;6.918;2022-12-29T19:34:02;100342.91;;;9.22;100.00
27705;BME280;15109;50.992;6.918;2022-12-29T19:37:23;100354.56;;;9.16;100.00
27705;BME280;15109;50.992;6.918;2022-12-29T19:40:48;100360.22;;;9.14;100.00
27705;BME280;15109;50.992;6.918;2022-12-29T19:44:10;100357.38;;;9.07;100.00
27705;BME280;15109;50.992;6.918;2022-12-29T19:47:32;100359.25;;;9.07;100.00
27705;BME280;15109;50.992;6.918;2022-12-29T19:50:53;100366.97;;;9.03;100.00
27705;BME280;15109;50.992;6.918;2022-12-29T19:54:14;100366.38;;;8.93;100.00
27705;BME280;15109;50.992;6.918;2022-12-29T19:57:35;100371.00;;;8.93;100.00
27705;BME280;15109;50.992;6.918;2022-12-29T20:01:10;100377.47;;;8.92;100.00
27705;BME280;15109;50.992;6.918;2022-12-29T20:04:31;100381.06;;;8.92;100.00
27705;BME280;15109;50.992;6.918;2022-12-29T20:07:52;100382.94;;;8.92;100.00
27705;BME280;15109;50.992;6.918;2022-12-29T20:11:15;100386.19;;;8.87;100.00
27705;BME280;15109;50.992;6.918;2022-12-29T20:14:38;100390.25;;;8.91;100.00
27705;BME280;15109;50.992;6.918;2022-12-29T20:17:59;100392.50;;;8.88;100.00
27705;BME280;15109;50.992;6.918;2022-12-29T20:21:23;100402.94;;;8.84;100.00
27705;BME280;15109;50.992;6.918;2022-12-29T20:24:44;100407.59;;;8.76;100.00
27705;BME280;15109;50.992;6.918;2022-12-29T20:28:05;100412.75;;;8.71;100.00
27705;BME280;15109;50.992;6.918;2022-12-29T20:31:29;100425.69;;;8.69;100.00
27705;BME280;15109;50.992;6.918;2022-12-29T20:34:50;100430.00;;;8.63;100.00
27705;BME280;15109;50.992;6.918;2022-12-29T20:38:12;100436.50;;;8.62;100.00
27705;BME280;15109;50.992;6.918;2022-12-29T20:41:34;100438.06;;;8.56;100.00